Time;durP1;ratioP1;P1;durP2;ratioP2;P2;SDS_P1;SDS_P2;PMS_P1;PMS_P2;Temp;Humidity;BMP_temperature;BMP_pressure;BME280_temperature;BME280_humidity;BME280_pressure;Samples;Min_cycle;Max_cycle;Signal;HPM_P1;HPM_P2
2023/02/16 00:01:39;;;;;;;30.02;16.50;;;;;;;;;;5067514;28;20406;-57
2023/02/16 00:04:21;;;;;;;30.50;15.85;;;;;;;;;;5069222;28;20043;-57
2023/02/16 00:06:47;;;;;;;29.13;16.33;;;;;;;;;;5066707;28;20036;-58
2023/02/16 00:09:13;;;;;;;32.58;17.60;;;;;;;;;;5061554;28;20032;-58
2023/02/16 00:14:25;;;;;;;31.60;16.00;;;;;;;;;;5066999;28;20516;-57
2023/02/16 00:16:51;;;;;;;34.20;17.33;;;;;;;;;;5069004;28;20408;-57
2023/02/16 00:19:16;;;;;;;34.53;16.05;;;;;;;;;;5073560;28;20055;-57
2023/02/16 00:21:42;;;;;;;30.88;16.25;;;;;;;;;;5068251;28;20489;-57
2023/02/16 00:24:07;;;;;;;31.60;16.58;;;;;;;;;;5069487;28;20033;-59
2023/02/16 00:26:33;;;;;;;34.90;16.83;;;;;;;;;;5067133;28;20040;-56
2023/02/16 00:28:59;;;;;;;35.55;16.67;;;;;;;;;;5069289;28;20466;-57
2023/02/16 00:31:27;;;;;;;32.78;16.55;;;;;;;;;;5068235;28;20039;-56
2023/02/16 00:33:53;;;;;;;25.70;14.55;;;;;;;;;;5068546;28;20032;-57
2023/02/16 00:36:19;;;;;;;29.02;14.68;;;;;;;;;;5067731;28;20029;-60
2023/02/16 00:38:44;;;;;;;29.17;14.95;;;;;;;;;;5073046;28;20029;-57
2023/02/16 00:44:05;;;;;;;28.27;13.73;;;;;;;;;;5065578;28;20487;-57
2023/02/16 00:46:30;;;;;;;26.77;14.75;;;;;;;;;;5065998;28;20500;-56
2023/02/16 00:48:56;;;;;;;27.45;14.02;;;;;;;;;;5067884;28;20033;-58
2023/02/16 00:51:21;;;;;;;24.25;13.27;;;;;;;;;;5068082;28;20024;-57
2023/02/16 00:53:46;;;;;;;28.88;13.55;;;;;;;;;;5067619;28;20476;-58
2023/02/16 00:56:18;;;;;;;25.38;12.63;;;;;;;;;;5068475;28;20099;-58
2023/02/16 00:58:44;;;;;;;24.67;12.40;;;;;;;;;;5068298;28;20028;-58
2023/02/16 01:01:13;;;;;;;23.73;12.88;;;;;;;;;;5064950;28;20500;-58
2023/02/16 01:03:39;;;;;;;23.00;11.98;;;;;;;;;;5068161;28;20029;-58
2023/02/16 01:11:32;;;;;;;21.60;10.10;;;;;;;;;;5065879;28;20031;-58
2023/02/16 01:13:58;;;;;;;18.42;10.10;;;;;;;;;;5067165;28;20021;-57
2023/02/16 01:16:26;;;;;;;21.45;10.93;;;;;;;;;;5067133;28;20496;-57
2023/02/16 01:18:52;;;;;;;17.58;8.80;;;;;;;;;;5065066;28;20032;-57
2023/02/16 01:21:18;;;;;;;19.38;8.32;;;;;;;;;;5067403;28;20021;-58
2023/02/16 01:23:44;;;;;;;16.73;8.23;;;;;;;;;;5066174;28;20025;-57
2023/02/16 01:26:14;;;;;;;17.17;9.00;;;;;;;;;;5067736;28;20527;-57
2023/02/16 01:28:40;;;;;;;14.00;7.28;;;;;;;;;;5064876;28;20149;-57
2023/02/16 01:31:06;;;;;;;13.75;7.60;;;;;;;;;;5067232;28;20029;-57
2023/02/16 01:33:31;;;;;;;15.90;7.32;;;;;;;;;;5068634;28;20019;-58
2023/02/16 01:35:57;;;;;;;15.45;7.28;;;;;;;;;;5068157;28;20435;-58
2023/02/16 01:38:26;;;;;;;16.08;7.97;;;;;;;;;;5066574;28;20034;-57
2023/02/16 01:40:54;;;;;;;18.67;7.73;;;;;;;;;;5062902;28;20032;-58
2023/02/16 01:43:32;;;;;;;15.15;7.97;;;;;;;;;;5065814;28;20287;-57
2023/02/16 01:46:10;;;;;;;14.52;7.18;;;;;;;;;;5066673;28;20039;-57
2023/02/16 01:48:36;;;;;;;14.10;7.38;;;;;;;;;;5065658;28;20085;-57
2023/02/16 01:51:25;;;;;;;14.48;7.25;;;;;;;;;;5066573;28;20406;-58
2023/02/16 01:54:06;;;;;;;14.85;7.35;;;;;;;;;;5066906;28;20024;-57
2023/02/16 01:56:38;;;;;;;16.75;7.22;;;;;;;;;;5063676;28;20445;-57
2023/02/16 01:59:29;;;;;;;14.13;7.07;;;;;;;;;;5066992;28;20024;-57
2023/02/16 02:02:03;;;;;;;11.00;6.60;;;;;;;;;;5063844;28;20442;-57
2023/02/16 02:07:43;;;;;;;16.92;8.60;;;;;;;;;;5063664;28;20671;-58
2023/02/16 02:10:15;;;;;;;20.90;10.65;;;;;;;;;;5051733;28;20037;-58
2023/02/16 02:12:51;;;;;;;23.88;11.32;;;;;;;;;;5065917;28;20021;-58
2023/02/16 02:15:21;;;;;;;24.08;12.95;;;;;;;;;;5066864;28;20024;-57
2023/02/16 02:17:46;;;;;;;32.28;15.35;;;;;;;;;;5064214;28;20452;-57
2023/02/16 02:23:30;;;;;;;27.13;15.55;;;;;;;;;;5067315;28;20024;-59
2023/02/16 02:23:57;;;;;;;28.15;14.57;;;;;;;;;;5065117;28;20028;-58
2023/02/16 02:26:57;;;;;;;26.27;14.88;;;;;;;;;;5002734;28;20121;-58
2023/02/16 02:29:25;;;;;;;27.38;14.40;;;;;;;;;;5066549;28;20021;-58
2023/02/16 02:32:09;;;;;;;23.98;14.50;;;;;;;;;;5065491;28;20115;-58
2023/02/16 02:34:43;;;;;;;30.20;15.07;;;;;;;;;;5065155;28;20116;-57
2023/02/16 02:37:17;;;;;;;24.77;13.98;;;;;;;;;;5064991;28;20052;-57
2023/02/16 02:39:55;;;;;;;26.38;14.25;;;;;;;;;;5065962;28;20108;-58
2023/02/16 02:42:26;;;;;;;22.40;12.32;;;;;;;;;;5064759;28;20032;-58
2023/02/16 02:45:01;;;;;;;27.45;12.10;;;;;;;;;;5066063;28;20105;-57
2023/02/16 02:47:58;;;;;;;20.50;9.95;;;;;;;;;;5064361;28;20028;-58
2023/02/16 02:50:37;;;;;;;22.20;9.52;;;;;;;;;;5018203;28;20786;-58
2023/02/16 02:53:08;;;;;;;16.15;9.10;;;;;;;;;;5063327;28;20627;-57
2023/02/16 03:01:10;;;;;;;20.08;8.85;;;;;;;;;;5066813;28;20039;-57
2023/02/16 03:03:48;;;;;;;16.77;8.98;;;;;;;;;;5065574;28;20055;-56
2023/02/16 03:06:26;;;;;;;17.95;8.25;;;;;;;;;;5095085;28;20031;-57
2023/02/16 03:08:59;;;;;;;17.77;8.70;;;;;;;;;;5066508;28;20078;-57
2023/02/16 03:14:16;;;;;;;16.52;7.85;;;;;;;;;;5064292;28;20039;-59
2023/02/16 03:16:46;;;;;;;18.17;8.95;;;;;;;;;;5061834;28;20039;-59
2023/02/16 03:30:17;;;;;;;19.88;9.13;;;;;;;;;;5066302;28;20036;-57
2023/02/16 03:32:44;;;;;;;18.23;9.52;;;;;;;;;;5067579;28;20024;-57
2023/02/16 03:35:11;;;;;;;17.58;9.07;;;;;;;;;;5067382;28;20105;-57
2023/02/16 03:37:38;;;;;;;17.77;8.05;;;;;;;;;;5066649;28;20119;-57
2023/02/16 03:42:51;;;;;;;14.70;8.10;;;;;;;;;;5065954;28;20093;-56
2023/02/16 03:45:18;;;;;;;15.18;8.02;;;;;;;;;;5066553;28;20036;-58
2023/02/16 03:47:43;;;;;;;19.13;8.50;;;;;;;;;;5066839;28;20036;-56
2023/02/16 03:50:08;;;;;;;17.38;8.57;;;;;;;;;;5068813;28;20031;-56
2023/02/16 03:52:34;;;;;;;16.42;7.95;;;;;;;;;;5069351;28;20031;-56
2023/02/16 03:54:59;;;;;;;16.58;8.05;;;;;;;;;;5067440;28;20039;-56
2023/02/16 03:57:25;;;;;;;17.80;8.85;;;;;;;;;;5064613;28;20074;-57
2023/02/16 03:59:52;;;;;;;18.33;8.20;;;;;;;;;;5069370;28;20551;-57
2023/02/16 04:02:17;;;;;;;21.02;9.20;;;;;;;;;;5068919;28;20029;-57
2023/02/16 04:04:43;;;;;;;16.30;7.78;;;;;;;;;;5069286;28;20032;-58
2023/02/16 04:07:08;;;;;;;16.15;8.35;;;;;;;;;;5071151;28;20037;-58
2023/02/16 04:09:33;;;;;;;20.90;10.07;;;;;;;;;;5065438;28;20032;-57
2023/02/16 04:14:43;;;;;;;25.30;13.10;;;;;;;;;;5065108;28;20147;-58
2023/02/16 04:17:08;;;;;;;28.17;14.20;;;;;;;;;;5062840;28;20115;-57
2023/02/16 04:19:33;;;;;;;28.67;15.35;;;;;;;;;;5063057;28;20033;-58
2023/02/16 04:21:59;;;;;;;25.55;13.57;;;;;;;;;;5068100;28;20043;-59
2023/02/16 04:24:24;;;;;;;25.13;14.10;;;;;;;;;;5068311;28;20043;-58
2023/02/16 04:26:49;;;;;;;29.10;15.20;;;;;;;;;;5068949;28;20537;-58
2023/02/16 04:29:15;;;;;;;30.63;15.15;;;;;;;;;;5069775;28;20397;-58
2023/02/16 04:31:40;;;;;;;26.63;13.65;;;;;;;;;;5069431;28;20067;-58
2023/02/16 04:34:06;;;;;;;27.00;12.65;;;;;;;;;;5067426;28;20104;-58
2023/02/16 04:36:32;;;;;;;21.88;11.82;;;;;;;;;;5067470;28;20028;-57
2023/02/16 04:38:57;;;;;;;19.15;9.88;;;;;;;;;;5070104;28;20043;-59
2023/02/16 04:41:23;;;;;;;18.98;9.65;;;;;;;;;;5067909;28;20473;-57
2023/02/16 04:43:48;;;;;;;18.33;9.38;;;;;;;;;;5066849;28;20125;-58
2023/02/16 04:46:13;;;;;;;19.15;8.75;;;;;;;;;;5068387;28;20038;-58
2023/02/16 04:48:39;;;;;;;18.52;9.50;;;;;;;;;;5065295;28;20489;-57
2023/02/16 04:51:04;;;;;;;18.85;8.82;;;;;;;;;;5069865;28;20028;-58
2023/02/16 04:53:30;;;;;;;20.67;9.50;;;;;;;;;;5068115;28;20027;-58
2023/02/16 04:55:55;;;;;;;17.42;9.15;;;;;;;;;;5067561;28;20024;-57
2023/02/16 04:58:20;;;;;;;22.83;9.43;;;;;;;;;;5067607;28;20090;-57
2023/02/16 05:00:46;;;;;;;21.23;9.57;;;;;;;;;;5063113;28;20031;-58
2023/02/16 05:03:11;;;;;;;24.00;11.65;;;;;;;;;;5067450;28;20104;-57
2023/02/16 05:05:37;;;;;;;21.23;10.65;;;;;;;;;;5060819;28;20036;-58
2023/02/16 05:08:03;;;;;;;22.00;10.85;;;;;;;;;;5067371;28;20024;-58
2023/02/16 05:10:28;;;;;;;23.48;11.43;;;;;;;;;;5063797;28;20050;-57
2023/02/16 05:15:38;;;;;;;19.73;9.05;;;;;;;;;;5065860;28;20055;-57
2023/02/16 05:18:03;;;;;;;17.70;8.82;;;;;;;;;;5063900;28;20052;-57
2023/02/16 05:23:29;;;;;;;19.17;9.70;;;;;;;;;;5045730;28;20029;-58
2023/02/16 05:25:54;;;;;;;18.10;9.55;;;;;;;;;;5056357;28;20068;-57
2023/02/16 05:28:20;;;;;;;19.88;9.85;;;;;;;;;;5065856;28;20105;-57
2023/02/16 05:30:45;;;;;;;19.30;9.38;;;;;;;;;;5068116;28;20407;-57
2023/02/16 05:33:11;;;;;;;18.92;8.93;;;;;;;;;;5071935;28;20025;-56
2023/02/16 05:35:36;;;;;;;20.20;9.18;;;;;;;;;;5068058;28;20028;-54
2023/02/16 05:38:02;;;;;;;20.33;9.80;;;;;;;;;;5069299;28;20024;-55
2023/02/16 05:40:27;;;;;;;20.67;9.57;;;;;;;;;;5067315;28;20071;-57
2023/02/16 05:42:53;;;;;;;17.55;8.90;;;;;;;;;;5067286;28;20048;-55
2023/02/16 05:45:19;;;;;;;27.08;10.48;;;;;;;;;;5067574;28;20058;-56
2023/02/16 05:47:44;;;;;;;22.42;10.13;;;;;;;;;;5067393;28;20037;-56
2023/02/16 05:50:10;;;;;;;18.85;8.93;;;;;;;;;;5068929;28;20631;-55
2023/02/16 05:52:36;;;;;;;20.23;9.57;;;;;;;;;;5068179;28;20718;-56
2023/02/16 05:55:02;;;;;;;17.35;9.00;;;;;;;;;;5067565;28;20052;-56
2023/02/16 05:57:27;;;;;;;20.95;9.15;;;;;;;;;;5067532;28;20129;-56
2023/02/16 05:59:53;;;;;;;18.00;8.75;;;;;;;;;;5068714;28;20485;-55
2023/02/16 06:02:18;;;;;;;18.10;8.75;;;;;;;;;;5063553;28;20033;-54
2023/02/16 06:04:44;;;;;;;20.50;8.65;;;;;;;;;;5068195;28;20025;-55
2023/02/16 06:07:09;;;;;;;18.77;9.15;;;;;;;;;;5068579;28;20059;-52
2023/02/16 06:09:34;;;;;;;23.23;10.20;;;;;;;;;;5068855;28;20032;-55
2023/02/16 06:12:00;;;;;;;19.33;9.25;;;;;;;;;;5074016;28;20032;-56
2023/02/16 06:14:25;;;;;;;16.00;8.80;;;;;;;;;;5071323;28;20150;-56
2023/02/16 06:16:51;;;;;;;19.80;9.25;;;;;;;;;;5068333;28;20024;-55
2023/02/16 06:19:18;;;;;;;18.45;9.35;;;;;;;;;;5068893;28;20030;-53
2023/02/16 06:21:43;;;;;;;18.70;8.02;;;;;;;;;;5067475;28;20024;-55
2023/02/16 06:24:11;;;;;;;19.30;8.50;;;;;;;;;;5067549;28;20043;-56
2023/02/16 06:26:37;;;;;;;18.48;8.25;;;;;;;;;;5070171;28;20050;-57
2023/02/16 06:29:03;;;;;;;19.10;9.15;;;;;;;;;;5064563;28;20035;-57
2023/02/16 06:31:29;;;;;;;16.92;8.60;;;;;;;;;;5066242;28;20024;-55
2023/02/16 06:33:55;;;;;;;16.02;8.60;;;;;;;;;;5067367;28;20032;-55
2023/02/16 06:36:21;;;;;;;16.50;8.65;;;;;;;;;;5067062;28;20051;-55
2023/02/16 06:38:47;;;;;;;19.73;8.43;;;;;;;;;;5068182;28;20035;-55
2023/02/16 06:41:29;;;;;;;18.88;8.52;;;;;;;;;;5066382;28;20107;-55
2023/02/16 06:43:58;;;;;;;19.40;9.10;;;;;;;;;;5062791;28;20064;-55
2023/02/16 06:46:24;;;;;;;17.00;8.10;;;;;;;;;;5067916;28;20107;-55
2023/02/16 06:48:49;;;;;;;16.88;7.97;;;;;;;;;;5068538;28;20120;-55
2023/02/16 06:51:17;;;;;;;20.83;8.77;;;;;;;;;;5067460;28;20028;-55
2023/02/16 06:53:43;;;;;;;17.80;8.27;;;;;;;;;;5067380;28;20025;-55
2023/02/16 06:56:08;;;;;;;17.83;8.90;;;;;;;;;;5062801;28;20992;-56
2023/02/16 06:58:33;;;;;;;16.08;8.85;;;;;;;;;;5067168;28;20119;-55
2023/02/16 07:00:59;;;;;;;18.75;8.60;;;;;;;;;;5064855;28;20033;-55
2023/02/16 07:03:24;;;;;;;20.80;11.02;;;;;;;;;;5064840;28;20021;-56
2023/02/16 07:05:50;;;;;;;25.20;11.32;;;;;;;;;;5069844;28;20085;-55
2023/02/16 07:08:15;;;;;;;20.52;9.70;;;;;;;;;;5075329;28;20051;-56
2023/02/16 07:10:45;;;;;;;22.42;10.60;;;;;;;;;;5071478;28;20039;-56
2023/02/16 07:13:11;;;;;;;20.80;9.50;;;;;;;;;;5072087;28;20027;-56
2023/02/16 07:15:37;;;;;;;18.48;9.63;;;;;;;;;;5071629;28;20029;-55
2023/02/16 07:18:02;;;;;;;22.13;9.88;;;;;;;;;;5071519;28;20113;-55
2023/02/16 07:20:28;;;;;;;18.83;9.40;;;;;;;;;;5071452;28;20600;-55
2023/02/16 07:22:53;;;;;;;30.65;16.30;;;;;;;;;;5071021;28;20029;-56
2023/02/16 07:25:19;;;;;;;40.13;20.45;;;;;;;;;;5071326;28;20059;-56
2023/02/16 07:27:44;;;;;;;46.28;25.60;;;;;;;;;;5075331;28;20052;-55
2023/02/16 07:30:11;;;;;;;40.15;20.25;;;;;;;;;;5071610;28;20079;-55
2023/02/16 07:32:36;;;;;;;36.88;19.98;;;;;;;;;;5069208;28;20036;-55
2023/02/16 07:35:03;;;;;;;37.58;19.23;;;;;;;;;;5074316;28;20031;-55
2023/02/16 07:37:28;;;;;;;27.45;12.40;;;;;;;;;;5069011;28;20032;-56
2023/02/16 07:39:53;;;;;;;21.67;11.13;;;;;;;;;;5071990;28;20044;-55
2023/02/16 07:42:20;;;;;;;22.38;9.88;;;;;;;;;;5067561;28;20086;-55
2023/02/16 07:44:45;;;;;;;21.90;10.70;;;;;;;;;;5071314;28;20031;-55
2023/02/16 07:47:12;;;;;;;22.02;10.35;;;;;;;;;;5068325;28;20111;-56
2023/02/16 07:49:37;;;;;;;18.23;8.90;;;;;;;;;;5072086;28;20324;-56
2023/02/16 07:52:03;;;;;;;19.58;9.65;;;;;;;;;;5070696;28;20033;-55
2023/02/16 07:54:30;;;;;;;16.95;8.90;;;;;;;;;;5072544;28;20036;-56
2023/02/16 07:56:56;;;;;;;19.10;9.60;;;;;;;;;;5067935;28;20493;-56
2023/02/16 07:59:21;;;;;;;18.73;9.07;;;;;;;;;;5068153;28;20044;-55
2023/02/16 08:01:46;;;;;;;16.92;8.70;;;;;;;;;;5071288;28;20021;-56
2023/02/16 08:04:12;;;;;;;16.98;8.88;;;;;;;;;;5070141;28;20551;-56
2023/02/16 08:06:37;;;;;;;15.98;7.97;;;;;;;;;;5068534;28;20058;-56
2023/02/16 08:09:03;;;;;;;16.90;8.45;;;;;;;;;;5065359;28;20029;-55
2023/02/16 08:11:29;;;;;;;25.38;15.57;;;;;;;;;;5070467;28;20071;-56
2023/02/16 08:13:54;;;;;;;26.55;14.43;;;;;;;;;;5070050;28;20020;-56
2023/02/16 08:16:22;;;;;;;31.38;16.85;;;;;;;;;;5069815;28;20025;-56
2023/02/16 08:18:49;;;;;;;35.25;20.85;;;;;;;;;;5071090;28;20054;-55
2023/02/16 08:21:23;;;;;;;36.65;21.77;;;;;;;;;;5070562;28;20378;-56
2023/02/16 08:24:00;;;;;;;36.70;21.73;;;;;;;;;;5070356;28;20041;-55
2023/02/16 08:26:28;;;;;;;35.10;20.17;;;;;;;;;;5068590;28;20040;-55
2023/02/16 08:28:56;;;;;;;36.42;20.60;;;;;;;;;;5069838;28;20024;-55
2023/02/16 08:31:24;;;;;;;42.67;22.45;;;;;;;;;;5066805;28;20032;-56
2023/02/16 08:33:54;;;;;;;38.08;20.83;;;;;;;;;;5070067;28;20077;-56
2023/02/16 08:36:22;;;;;;;33.65;19.52;;;;;;;;;;5069296;28;20078;-56
2023/02/16 08:38:51;;;;;;;31.83;17.70;;;;;;;;;;5070428;28;20533;-56
2023/02/16 08:41:21;;;;;;;32.23;18.23;;;;;;;;;;5069843;28;20098;-56
2023/02/16 08:43:48;;;;;;;29.88;17.65;;;;;;;;;;5070709;28;20033;-56
2023/02/16 08:46:14;;;;;;;28.40;14.60;;;;;;;;;;5069675;28;20017;-56
2023/02/16 08:48:40;;;;;;;17.55;10.27;;;;;;;;;;5069352;28;20029;-55
2023/02/16 08:51:06;;;;;;;15.32;8.68;;;;;;;;;;5070278;28;20066;-55
2023/02/16 08:53:33;;;;;;;13.30;6.65;;;;;;;;;;5070275;28;20101;-56
2023/02/16 08:56:04;;;;;;;16.55;8.02;;;;;;;;;;5069198;28;20021;-56
2023/02/16 08:58:30;;;;;;;26.75;13.88;;;;;;;;;;5068767;28;20028;-56
2023/02/16 09:00:56;;;;;;;27.92;14.27;;;;;;;;;;5069839;28;20025;-54
2023/02/16 09:03:21;;;;;;;25.90;15.20;;;;;;;;;;5064231;28;20048;-57
2023/02/16 09:05:49;;;;;;;24.33;15.25;;;;;;;;;;5067086;28;20111;-57
2023/02/16 09:08:15;;;;;;;31.50;16.58;;;;;;;;;;5065304;28;20027;-57
2023/02/16 09:10:41;;;;;;;26.92;16.02;;;;;;;;;;5069689;28;20028;-57
2023/02/16 09:13:13;;;;;;;25.23;14.70;;;;;;;;;;5077280;28;20277;-56
2023/02/16 09:15:40;;;;;;;20.90;10.80;;;;;;;;;;5069732;28;20458;-57
2023/02/16 09:18:07;;;;;;;15.95;7.63;;;;;;;;;;5069366;28;20044;-56
2023/02/16 09:20:36;;;;;;;9.48;5.22;;;;;;;;;;5068931;28;20028;-56
2023/02/16 09:23:01;;;;;;;12.00;5.63;;;;;;;;;;5065249;28;20500;-57
2023/02/16 09:25:27;;;;;;;12.15;6.40;;;;;;;;;;5068527;28;20115;-56
2023/02/16 09:27:52;;;;;;;12.70;6.28;;;;;;;;;;5068968;28;20033;-56
2023/02/16 09:30:17;;;;;;;12.07;6.30;;;;;;;;;;5069270;28;20034;-56
2023/02/16 09:32:44;;;;;;;12.18;5.43;;;;;;;;;;5069222;28;20047;-55
2023/02/16 09:35:09;;;;;;;10.00;5.40;;;;;;;;;;5067464;28;20031;-56
2023/02/16 09:37:35;;;;;;;10.93;5.80;;;;;;;;;;5068517;28;20017;-56
2023/02/16 09:40:00;;;;;;;12.30;6.43;;;;;;;;;;5069136;28;20055;-57
2023/02/16 09:42:43;;;;;;;9.50;5.35;;;;;;;;;;5070057;28;20103;-57
2023/02/16 09:45:15;;;;;;;10.30;5.22;;;;;;;;;;5067001;28;20024;-56
2023/02/16 09:47:43;;;;;;;11.45;5.32;;;;;;;;;;5068153;28;20103;-57
2023/02/16 09:50:19;;;;;;;11.10;5.60;;;;;;;;;;5068801;28;20029;-56
2023/02/16 09:52:57;;;;;;;11.35;5.75;;;;;;;;;;5068170;28;20025;-56
2023/02/16 09:55:25;;;;;;;11.88;5.10;;;;;;;;;;5066702;28;20028;-56
2023/02/16 09:58:20;;;;;;;9.52;5.10;;;;;;;;;;5069027;28;20032;-57
2023/02/16 10:01:00;;;;;;;9.90;5.47;;;;;;;;;;5066888;28;20118;-57
2023/02/16 10:03:38;;;;;;;7.80;4.95;;;;;;;;;;5068914;28;20031;-57
2023/02/16 10:06:12;;;;;;;11.65;5.70;;;;;;;;;;5067983;28;20021;-57
2023/02/16 10:08:44;;;;;;;7.57;5.10;;;;;;;;;;5067759;28;20036;-56
2023/02/16 10:14:17;;;;;;;9.93;5.35;;;;;;;;;;5064526;28;20055;-58
2023/02/16 10:16:58;;;;;;;12.32;5.13;;;;;;;;;;5067760;28;20031;-58
2023/02/16 10:19:29;;;;;;;15.98;5.60;;;;;;;;;;5068672;28;20116;-58
2023/02/16 10:21:59;;;;;;;12.68;5.57;;;;;;;;;;5068816;28;20400;-57
2023/02/16 10:24:28;;;;;;;12.38;5.40;;;;;;;;;;5067780;28;20137;-57
2023/02/16 10:27:03;;;;;;;9.50;5.45;;;;;;;;;;5067562;28;20465;-58
2023/02/16 10:29:28;;;;;;;10.20;5.72;;;;;;;;;;5068345;28;20554;-57
2023/02/16 10:32:15;;;;;;;10.45;5.47;;;;;;;;;;5067214;28;20063;-58
2023/02/16 10:34:48;;;;;;;10.40;5.57;;;;;;;;;;5073451;28;20359;-58
2023/02/16 10:37:34;;;;;;;9.23;5.47;;;;;;;;;;5066206;28;20017;-58
2023/02/16 10:40:30;;;;;;;8.48;5.28;;;;;;;;;;5064606;28;20043;-58
2023/02/16 10:43:18;;;;;;;11.90;5.63;;;;;;;;;;5068538;28;20031;-58
2023/02/16 10:45:50;;;;;;;11.00;5.63;;;;;;;;;;5068117;28;20035;-58
2023/02/16 10:48:16;;;;;;;10.95;5.53;;;;;;;;;;5060690;28;20025;-58
2023/02/16 10:51:11;;;;;;;8.85;5.18;;;;;;;;;;5062829;28;20024;-57
2023/02/16 10:53:42;;;;;;;12.45;5.93;;;;;;;;;;5067215;28;20036;-58
2023/02/16 10:56:48;;;;;;;9.45;5.25;;;;;;;;;;5060203;28;20108;-57
2023/02/16 10:59:17;;;;;;;8.85;5.70;;;;;;;;;;5065603;28;20059;-58
2023/02/16 11:01:46;;;;;;;9.02;4.97;;;;;;;;;;5062220;28;20028;-58
2023/02/16 11:04:45;;;;;;;8.00;5.07;;;;;;;;;;5068254;28;20081;-58
2023/02/16 11:07:14;;;;;;;8.43;5.03;;;;;;;;;;5066942;28;20028;-58
2023/02/16 11:09:42;;;;;;;7.22;4.82;;;;;;;;;;5067472;28;20036;-58
2023/02/16 11:12:16;;;;;;;9.30;4.90;;;;;;;;;;5073330;28;20036;-58
2023/02/16 11:14:49;;;;;;;9.25;5.10;;;;;;;;;;5070062;28;20037;-58
2023/02/16 11:17:16;;;;;;;9.43;5.13;;;;;;;;;;5067410;28;20024;-58
2023/02/16 11:19:59;;;;;;;10.85;5.47;;;;;;;;;;5068047;28;20063;-58
2023/02/16 11:22:36;;;;;;;12.30;5.40;;;;;;;;;;5067940;28;20446;-58
2023/02/16 11:25:20;;;;;;;10.63;5.78;;;;;;;;;;5064683;28;20029;-58
2023/02/16 11:27:58;;;;;;;10.20;5.45;;;;;;;;;;5066149;28;20028;-58
2023/02/16 11:30:41;;;;;;;9.65;5.50;;;;;;;;;;5065408;28;20028;-58
2023/02/16 11:33:25;;;;;;;8.88;5.20;;;;;;;;;;5072240;28;20031;-58
2023/02/16 11:35:52;;;;;;;7.93;4.78;;;;;;;;;;5072584;28;20020;-58
2023/02/16 11:38:27;;;;;;;6.75;4.70;;;;;;;;;;5066963;28;20037;-58
2023/02/16 11:40:54;;;;;;;10.02;5.50;;;;;;;;;;5067728;28;20047;-58
2023/02/16 11:43:19;;;;;;;8.55;4.68;;;;;;;;;;5066851;28;20020;-58
2023/02/16 11:45:56;;;;;;;7.00;4.55;;;;;;;;;;5067720;28;20044;-58
2023/02/16 11:48:28;;;;;;;9.88;5.22;;;;;;;;;;5066496;28;20028;-58
2023/02/16 11:51:02;;;;;;;6.97;4.53;;;;;;;;;;5067358;28;20029;-58
2023/02/16 11:53:33;;;;;;;7.40;4.95;;;;;;;;;;5071019;28;20021;-57
2023/02/16 11:56:22;;;;;;;10.85;5.30;;;;;;;;;;5070054;28;20032;-58
2023/02/16 11:59:11;;;;;;;9.10;5.40;;;;;;;;;;5069006;28;20029;-58
2023/02/16 12:01:42;;;;;;;9.18;5.68;;;;;;;;;;5064491;28;20115;-58
2023/02/16 12:04:30;;;;;;;10.18;6.15;;;;;;;;;;5069833;28;20620;-58
2023/02/16 12:07:05;;;;;;;8.55;5.10;;;;;;;;;;5064180;28;20031;-58
2023/02/16 12:09:42;;;;;;;7.43;5.35;;;;;;;;;;5075735;28;20048;-57
2023/02/16 12:12:36;;;;;;;9.60;6.32;;;;;;;;;;5067334;28;20040;-57
2023/02/16 12:15:12;;;;;;;7.45;5.30;;;;;;;;;;5065663;28;20020;-58
2023/02/16 12:17:59;;;;;;;9.98;5.20;;;;;;;;;;5069014;28;20485;-58
2023/02/16 12:20:40;;;;;;;8.38;5.22;;;;;;;;;;5070144;28;20029;-58
2023/02/16 12:23:33;;;;;;;7.15;4.70;;;;;;;;;;5070878;28;20025;-59
2023/02/16 12:26:32;;;;;;;5.57;4.00;;;;;;;;;;5066573;28;20060;-59
2023/02/16 12:29:19;;;;;;;5.55;3.80;;;;;;;;;;5063748;28;20397;-57
2023/02/16 12:31:53;;;;;;;7.20;3.92;;;;;;;;;;5070841;28;20036;-58
2023/02/16 12:34:39;;;;;;;6.78;3.80;;;;;;;;;;5068470;28;20090;-58
2023/02/16 12:37:25;;;;;;;6.93;3.42;;;;;;;;;;5069785;28;20021;-58
2023/02/16 12:40:12;;;;;;;6.32;3.60;;;;;;;;;;5066633;28;20031;-57
2023/02/16 12:42:49;;;;;;;4.80;3.15;;;;;;;;;;5070023;28;20393;-57
2023/02/16 12:45:20;;;;;;;6.03;3.45;;;;;;;;;;5069993;28;20410;-57
2023/02/16 12:47:53;;;;;;;6.68;3.58;;;;;;;;;;5069416;28;20071;-58
2023/02/16 12:50:20;;;;;;;6.38;3.63;;;;;;;;;;5070278;28;20033;-58
2023/02/16 12:52:52;;;;;;;5.53;3.42;;;;;;;;;;5070314;28;20037;-57
2023/02/16 12:55:34;;;;;;;4.65;3.28;;;;;;;;;;5069714;28;20033;-57
2023/02/16 12:58:13;;;;;;;8.57;3.47;;;;;;;;;;5069754;28;20029;-58
2023/02/16 13:00:51;;;;;;;7.18;3.33;;;;;;;;;;5069776;28;20067;-57
2023/02/16 13:03:41;;;;;;;7.75;3.55;;;;;;;;;;5066516;28;20039;-57
2023/02/16 13:06:23;;;;;;;6.93;3.40;;;;;;;;;;5060252;28;20029;-57
2023/02/16 13:09:23;;;;;;;4.90;3.67;;;;;;;;;;5067534;28;20366;-58
2023/02/16 13:12:05;;;;;;;6.18;3.30;;;;;;;;;;5009459;28;20040;-58
2023/02/16 13:14:35;;;;;;;6.65;3.53;;;;;;;;;;5069939;28;20020;-58
2023/02/16 13:17:02;;;;;;;;;;;;;;;;;;5069137;28;20021;-58
2023/02/16 13:19:28;;;;;;;7.60;3.50;;;;;;;;;;5068754;28;19909;-58
2023/02/16 13:22:15;;;;;;;5.07;3.05;;;;;;;;;;5074597;28;20400;-58
2023/02/16 13:24:53;;;;;;;5.35;3.53;;;;;;;;;;5069604;28;20103;-57
2023/02/16 13:27:21;;;;;;;5.47;3.40;;;;;;;;;;5068061;28;20040;-57
2023/02/16 13:30:09;;;;;;;5.03;3.30;;;;;;;;;;5070014;28;20048;-58
2023/02/16 13:32:59;;;;;;;6.20;3.55;;;;;;;;;;5073729;28;20044;-57
2023/02/16 13:36:17;;;;;;;6.93;3.50;;;;;;;;;;5065714;28;20071;-58
2023/02/16 13:38:57;;;;;;;5.55;3.35;;;;;;;;;;5037304;28;20112;-57
2023/02/16 13:41:32;;;;;;;6.88;3.47;;;;;;;;;;5066577;28;20482;-58
2023/02/16 13:44:06;;;;;;;6.05;3.38;;;;;;;;;;5069459;28;20032;-57
2023/02/16 13:46:36;;;;;;;7.53;3.90;;;;;;;;;;5063144;28;20439;-58
2023/02/16 13:49:02;;;;;;;6.43;3.38;;;;;;;;;;5069078;28;20028;-58
2023/02/16 13:51:40;;;;;;;6.68;3.55;;;;;;;;;;5067916;28;20115;-58
2023/02/16 13:54:10;;;;;;;6.15;3.97;;;;;;;;;;5063988;28;20050;-58
2023/02/16 13:56:36;;;;;;;5.10;3.08;;;;;;;;;;5067699;28;20028;-58
2023/02/16 13:59:21;;;;;;;6.57;3.45;;;;;;;;;;5063788;28;20033;-58
2023/02/16 14:01:49;;;;;;;5.55;2.88;;;;;;;;;;5062280;28;20532;-58
2023/02/16 14:04:26;;;;;;;6.07;3.38;;;;;;;;;;5068332;28;20047;-58
2023/02/16 14:07:06;;;;;;;7.05;3.42;;;;;;;;;;5061311;28;20025;-58
2023/02/16 14:09:37;;;;;;;7.95;3.47;;;;;;;;;;5069518;28;20028;-58
2023/02/16 14:12:13;;;;;;;5.95;3.58;;;;;;;;;;5068733;28;20024;-58
2023/02/16 14:14:41;;;;;;;7.88;4.13;;;;;;;;;;5067565;28;20008;-58
2023/02/16 14:17:15;;;;;;;11.35;5.78;;;;;;;;;;5068329;28;20021;-58
2023/02/16 14:20:14;;;;;;;8.23;4.65;;;;;;;;;;5067753;28;20028;-58
2023/02/16 14:22:42;;;;;;;4.63;3.17;;;;;;;;;;5035606;28;20047;-58
2023/02/16 14:25:22;;;;;;;5.82;3.45;;;;;;;;;;5068723;28;20437;-58
2023/02/16 14:27:55;;;;;;;5.70;3.13;;;;;;;;;;5067501;28;20032;-59
2023/02/16 14:30:51;;;;;;;6.70;3.55;;;;;;;;;;5068180;28;20036;-60
2023/02/16 14:33:53;;;;;;;6.50;3.63;;;;;;;;;;5063955;28;20029;-60
2023/02/16 14:36:25;;;;;;;7.05;3.90;;;;;;;;;;5042659;28;20099;-59
2023/02/16 14:38:51;;;;;;;5.95;3.30;;;;;;;;;;5067306;28;20035;-58
2023/02/16 14:41:32;;;;;;;6.72;3.17;;;;;;;;;;5068371;28;20028;-60
2023/02/16 14:44:03;;;;;;;5.10;2.92;;;;;;;;;;5067255;28;20535;-59
2023/02/16 14:46:37;;;;;;;4.95;3.17;;;;;;;;;;5069137;28;20029;-59
2023/02/16 14:49:12;;;;;;;5.05;3.17;;;;;;;;;;5063227;28;20486;-59
2023/02/16 14:52:10;;;;;;;4.95;3.33;;;;;;;;;;5067475;28;20509;-60
2023/02/16 14:54:54;;;;;;;5.25;3.13;;;;;;;;;;5068533;28;20032;-59
2023/02/16 14:57:33;;;;;;;7.05;3.40;;;;;;;;;;5057550;28;20029;-59
2023/02/16 15:00:20;;;;;;;6.60;3.70;;;;;;;;;;5062133;28;20505;-60
2023/02/16 15:03:12;;;;;;;4.63;3.33;;;;;;;;;;5064936;28;20037;-59
2023/02/16 15:05:38;;;;;;;4.35;3.05;;;;;;;;;;5066680;28;20060;-57
2023/02/16 15:08:15;;;;;;;6.18;3.10;;;;;;;;;;5068215;28;20044;-58
2023/02/16 15:10:46;;;;;;;4.90;3.53;;;;;;;;;;5067777;28;20439;-58
2023/02/16 15:13:22;;;;;;;5.93;3.45;;;;;;;;;;5066984;28;20051;-58
2023/02/16 15:15:51;;;;;;;8.80;3.63;;;;;;;;;;5060770;28;20025;-58
2023/02/16 15:18:20;;;;;;;5.50;3.92;;;;;;;;;;5067097;28;20025;-58
2023/02/16 15:20:49;;;;;;;9.25;4.32;;;;;;;;;;5067655;28;20557;-57
2023/02/16 15:23:33;;;;;;;6.78;4.50;;;;;;;;;;5067262;28;20028;-57
2023/02/16 15:26:01;;;;;;;7.60;5.28;;;;;;;;;;5062998;28;20029;-57
2023/02/16 15:28:30;;;;;;;7.32;4.28;;;;;;;;;;5070432;28;20039;-58
2023/02/16 15:30:57;;;;;;;6.35;4.53;;;;;;;;;;5075278;28;20096;-58
2023/02/16 15:33:22;;;;;;;7.70;3.50;;;;;;;;;;5069402;28;20104;-60
2023/02/16 15:35:53;;;;;;;5.78;3.75;;;;;;;;;;5071781;28;20095;-59
2023/02/16 15:38:23;;;;;;;9.93;4.22;;;;;;;;;;5068595;28;20485;-58
2023/02/16 15:40:56;;;;;;;5.72;3.92;;;;;;;;;;5071157;28;20027;-58
2023/02/16 15:43:38;;;;;;;13.38;5.82;;;;;;;;;;5071639;28;20028;-57
2023/02/16 15:46:12;;;;;;;6.53;3.40;;;;;;;;;;5071601;28;20027;-58